KBDE/BDE METAR and TAF weather

Enter ICAO airport designator
Station Type Date Time Source
KBDE METAR 2020/07/03 23:53 UTC NOAA

KBDE 032353Z AUTO 17004KT 10SM CLR 32/17 A3005 RMK AO2 SLP172 T03170167 10333 20311 55006


Station Type Date Time Source
KBDE Decoded METAR 2020/07/03 23:53 UTC NOAA

BAUDETTE INTERNATIONAL AIRPORT, MN, United States (KBDE) 48-44N 94-37W 329M
Jul 03, 2020 - 07:53 PM EDT / 2020.07.03 2353 UTC
Wind: from the S (170 degrees) at 5 MPH (4 KT):0
Visibility: 10 mile(s):0
Sky conditions: clear
Temperature: 89.1 F (31.7 C)
Dew Point: 62.1 F (16.7 C)
Relative Humidity: 40%
Pressure (altimeter): 30.05 in. Hg (1017 hPa)
Pressure tendency: 0.02 inches (0.6 hPa) lower than three hours ago
ob: KBDE 032353Z AUTO 17004KT 10SM CLR 32/17 A3005 RMK AO2 SLP172 T03170167 10333 20311 55006
cycle: 0

Station Type Date Time Source
KBDE TAF UTC NOAA

Error!

Example: see airport list